sensor_id;sensor_type;location;lat;lon;timestamp;P1;durP1;ratioP1;P2;durP2;ratioP2
3333;SDS011;1679;50.392;8.008;2023-05-07T00:01:35;2.37;;;2.17;;
3333;SDS011;1679;50.392;8.008;2023-05-07T00:04:02;1.90;;;1.80;;
3333;SDS011;1679;50.392;8.008;2023-05-07T00:06:28;2.17;;;2.07;;
3333;SDS011;1679;50.392;8.008;2023-05-07T00:08:55;2.70;;;2.50;;
3333;SDS011;1679;50.392;8.008;2023-05-07T00:11:21;2.27;;;2.07;;
3333;SDS011;1679;50.392;8.008;2023-05-07T00:13:47;2.30;;;2.20;;
3333;SDS011;1679;50.392;8.008;2023-05-07T00:16:13;2.10;;;2.00;;
3333;SDS011;1679;50.392;8.008;2023-05-07T00:18:38;2.40;;;2.20;;
3333;SDS011;1679;50.392;8.008;2023-05-07T00:21:04;2.57;;;2.37;;
3333;SDS011;1679;50.392;8.008;2023-05-07T00:23:30;2.80;;;2.60;;
3333;SDS011;1679;50.392;8.008;2023-05-07T00:25:56;2.60;;;2.50;;
3333;SDS011;1679;50.392;8.008;2023-05-07T00:28:21;2.63;;;2.43;;
3333;SDS011;1679;50.392;8.008;2023-05-07T00:30:47;2.47;;;2.20;;
3333;SDS011;1679;50.392;8.008;2023-05-07T00:33:12;2.30;;;2.20;;
3333;SDS011;1679;50.392;8.008;2023-05-07T00:35:38;2.33;;;2.23;;
3333;SDS011;1679;50.392;8.008;2023-05-07T00:38:03;3.00;;;2.70;;
3333;SDS011;1679;50.392;8.008;2023-05-07T00:40:29;3.10;;;2.47;;
3333;SDS011;1679;50.392;8.008;2023-05-07T00:42:54;2.47;;;2.37;;
3333;SDS011;1679;50.392;8.008;2023-05-07T00:45:23;2.47;;;2.37;;
3333;SDS011;1679;50.392;8.008;2023-05-07T00:47:55;2.37;;;2.27;;
3333;SDS011;1679;50.392;8.008;2023-05-07T00:50:24;4.60;;;2.60;;
3333;SDS011;1679;50.392;8.008;2023-05-07T00:52:50;3.00;;;2.80;;
3333;SDS011;1679;50.392;8.008;2023-05-07T00:55:17;2.47;;;2.27;;
3333;SDS011;1679;50.392;8.008;2023-05-07T00:57:43;2.50;;;2.30;;
3333;SDS011;1679;50.392;8.008;2023-05-07T01:00:10;2.70;;;2.50;;
3333;SDS011;1679;50.392;8.008;2023-05-07T01:02:38;2.40;;;2.20;;
3333;SDS011;1679;50.392;8.008;2023-05-07T01:05:04;2.93;;;2.73;;
3333;SDS011;1679;50.392;8.008;2023-05-07T01:07:32;2.90;;;2.70;;
3333;SDS011;1679;50.392;8.008;2023-05-07T01:09:59;2.83;;;2.57;;
3333;SDS011;1679;50.392;8.008;2023-05-07T01:12:26;3.13;;;2.80;;
3333;SDS011;1679;50.392;8.008;2023-05-07T01:14:53;2.23;;;2.13;;
3333;SDS011;1679;50.392;8.008;2023-05-07T01:17:19;2.90;;;2.60;;
3333;SDS011;1679;50.392;8.008;2023-05-07T01:19:44;2.37;;;2.27;;
3333;SDS011;1679;50.392;8.008;2023-05-07T01:22:10;2.47;;;2.33;;
3333;SDS011;1679;50.392;8.008;2023-05-07T01:24:37;2.90;;;2.70;;
3333;SDS011;1679;50.392;8.008;2023-05-07T01:27:03;2.60;;;2.40;;
3333;SDS011;1679;50.392;8.008;2023-05-07T01:29:29;2.93;;;2.73;;
3333;SDS011;1679;50.392;8.008;2023-05-07T01:31:59;2.90;;;2.70;;
3333;SDS011;1679;50.392;8.008;2023-05-07T01:34:27;2.83;;;2.50;;
3333;SDS011;1679;50.392;8.008;2023-05-07T01:36:55;3.50;;;2.90;;
3333;SDS011;1679;50.392;8.008;2023-05-07T01:39:26;3.10;;;2.90;;
3333;SDS011;1679;50.392;8.008;2023-05-07T01:41:54;3.20;;;3.00;;
3333;SDS011;1679;50.392;8.008;2023-05-07T01:44:21;3.10;;;2.90;;
3333;SDS011;1679;50.392;8.008;2023-05-07T01:46:47;3.53;;;2.63;;
3333;SDS011;1679;50.392;8.008;2023-05-07T01:49:13;3.07;;;2.83;;
3333;SDS011;1679;50.392;8.008;2023-05-07T01:51:39;5.23;;;2.87;;
3333;SDS011;1679;50.392;8.008;2023-05-07T01:54:05;2.90;;;2.80;;
3333;SDS011;1679;50.392;8.008;2023-05-07T01:56:33;3.53;;;3.23;;
3333;SDS011;1679;50.392;8.008;2023-05-07T01:58:58;3.67;;;3.17;;
3333;SDS011;1679;50.392;8.008;2023-05-07T02:01:24;2.40;;;2.20;;
3333;SDS011;1679;50.392;8.008;2023-05-07T02:03:49;3.17;;;2.97;;
3333;SDS011;1679;50.392;8.008;2023-05-07T02:06:15;3.20;;;3.00;;
3333;SDS011;1679;50.392;8.008;2023-05-07T02:08:41;2.60;;;2.50;;
3333;SDS011;1679;50.392;8.008;2023-05-07T02:11:06;3.90;;;3.03;;
3333;SDS011;1679;50.392;8.008;2023-05-07T02:13:32;3.13;;;2.87;;
3333;SDS011;1679;50.392;8.008;2023-05-07T02:16:02;2.80;;;2.70;;
3333;SDS011;1679;50.392;8.008;2023-05-07T02:18:28;3.53;;;3.33;;
3333;SDS011;1679;50.392;8.008;2023-05-07T02:20:54;4.27;;;3.23;;
3333;SDS011;1679;50.392;8.008;2023-05-07T02:23:19;4.63;;;3.40;;
3333;SDS011;1679;50.392;8.008;2023-05-07T02:25:46;2.73;;;2.53;;
3333;SDS011;1679;50.392;8.008;2023-05-07T02:28:12;3.33;;;3.20;;
3333;SDS011;1679;50.392;8.008;2023-05-07T02:30:38;2.70;;;2.60;;
3333;SDS011;1679;50.392;8.008;2023-05-07T02:33:04;3.57;;;3.30;;
3333;SDS011;1679;50.392;8.008;2023-05-07T02:35:31;3.80;;;3.50;;
3333;SDS011;1679;50.392;8.008;2023-05-07T02:37:57;3.50;;;3.20;;
3333;SDS011;1679;50.392;8.008;2023-05-07T02:40:23;2.90;;;2.70;;
3333;SDS011;1679;50.392;8.008;2023-05-07T02:42:48;3.97;;;3.57;;
3333;SDS011;1679;50.392;8.008;2023-05-07T02:45:15;3.60;;;3.30;;
3333;SDS011;1679;50.392;8.008;2023-05-07T02:47:40;3.53;;;3.33;;
3333;SDS011;1679;50.392;8.008;2023-05-07T02:50:06;3.40;;;3.10;;
3333;SDS011;1679;50.392;8.008;2023-05-07T02:52:32;3.10;;;2.90;;
3333;SDS011;1679;50.392;8.008;2023-05-07T02:54:57;2.93;;;2.77;;
3333;SDS011;1679;50.392;8.008;2023-05-07T02:57:23;3.30;;;3.00;;
3333;SDS011;1679;50.392;8.008;2023-05-07T02:59:49;3.30;;;3.10;;
3333;SDS011;1679;50.392;8.008;2023-05-07T03:02:16;3.10;;;2.90;;
3333;SDS011;1679;50.392;8.008;2023-05-07T03:04:42;2.80;;;2.60;;
3333;SDS011;1679;50.392;8.008;2023-05-07T03:07:07;3.23;;;3.03;;
3333;SDS011;1679;50.392;8.008;2023-05-07T03:09:33;3.63;;;3.33;;
3333;SDS011;1679;50.392;8.008;2023-05-07T03:11:58;3.53;;;3.13;;
3333;SDS011;1679;50.392;8.008;2023-05-07T03:14:26;3.57;;;3.27;;
3333;SDS011;1679;50.392;8.008;2023-05-07T03:16:52;3.93;;;3.63;;
3333;SDS011;1679;50.392;8.008;2023-05-07T03:19:18;3.47;;;3.20;;
3333;SDS011;1679;50.392;8.008;2023-05-07T03:21:43;3.47;;;3.27;;
3333;SDS011;1679;50.392;8.008;2023-05-07T03:24:09;3.30;;;2.97;;
3333;SDS011;1679;50.392;8.008;2023-05-07T03:26:35;6.13;;;4.07;;
3333;SDS011;1679;50.392;8.008;2023-05-07T03:29:00;3.43;;;3.20;;
3333;SDS011;1679;50.392;8.008;2023-05-07T03:31:25;3.77;;;3.47;;
3333;SDS011;1679;50.392;8.008;2023-05-07T03:33:52;3.43;;;2.87;;
3333;SDS011;1679;50.392;8.008;2023-05-07T03:36:19;3.30;;;3.10;;
3333;SDS011;1679;50.392;8.008;2023-05-07T03:38:45;3.93;;;3.63;;
3333;SDS011;1679;50.392;8.008;2023-05-07T03:41:10;3.90;;;3.60;;
3333;SDS011;1679;50.392;8.008;2023-05-07T03:43:36;3.10;;;2.77;;
3333;SDS011;1679;50.392;8.008;2023-05-07T03:46:03;3.80;;;3.50;;
3333;SDS011;1679;50.392;8.008;2023-05-07T03:48:28;4.00;;;3.60;;
3333;SDS011;1679;50.392;8.008;2023-05-07T03:50:54;4.07;;;3.87;;
3333;SDS011;1679;50.392;8.008;2023-05-07T03:53:20;3.60;;;3.40;;
3333;SDS011;1679;50.392;8.008;2023-05-07T03:55:46;3.30;;;3.10;;
3333;SDS011;1679;50.392;8.008;2023-05-07T03:58:13;3.93;;;3.63;;
3333;SDS011;1679;50.392;8.008;2023-05-07T04:00:39;3.77;;;3.57;;
3333;SDS011;1679;50.392;8.008;2023-05-07T04:03:05;4.20;;;3.80;;
3333;SDS011;1679;50.392;8.008;2023-05-07T04:05:31;3.50;;;3.30;;
3333;SDS011;1679;50.392;8.008;2023-05-07T04:08:00;4.00;;;3.70;;
3333;SDS011;1679;50.392;8.008;2023-05-07T04:10:26;5.43;;;4.13;;
3333;SDS011;1679;50.392;8.008;2023-05-07T04:12:53;4.70;;;3.80;;
3333;SDS011;1679;50.392;8.008;2023-05-07T04:15:18;4.40;;;4.10;;
3333;SDS011;1679;50.392;8.008;2023-05-07T04:17:44;3.90;;;3.60;;
3333;SDS011;1679;50.392;8.008;2023-05-07T04:20:10;4.40;;;4.10;;
3333;SDS011;1679;50.392;8.008;2023-05-07T04:22:39;5.20;;;3.70;;
3333;SDS011;1679;50.392;8.008;2023-05-07T04:25:05;5.03;;;3.90;;
3333;SDS011;1679;50.392;8.008;2023-05-07T04:27:32;3.87;;;3.67;;
3333;SDS011;1679;50.392;8.008;2023-05-07T04:29:58;3.60;;;3.40;;
3333;SDS011;1679;50.392;8.008;2023-05-07T04:32:25;4.30;;;3.90;;
3333;SDS011;1679;50.392;8.008;2023-05-07T04:34:54;4.30;;;4.00;;
3333;SDS011;1679;50.392;8.008;2023-05-07T04:37:20;4.10;;;3.50;;
3333;SDS011;1679;50.392;8.008;2023-05-07T04:39:47;4.40;;;4.10;;
3333;SDS011;1679;50.392;8.008;2023-05-07T04:42:16;4.57;;;4.27;;
3333;SDS011;1679;50.392;8.008;2023-05-07T04:44:43;3.90;;;3.60;;
3333;SDS011;1679;50.392;8.008;2023-05-07T04:47:09;4.60;;;4.20;;
3333;SDS011;1679;50.392;8.008;2023-05-07T04:49:35;4.27;;;4.00;;
3333;SDS011;1679;50.392;8.008;2023-05-07T04:52:01;4.20;;;3.90;;
3333;SDS011;1679;50.392;8.008;2023-05-07T04:54:26;4.17;;;3.87;;
3333;SDS011;1679;50.392;8.008;2023-05-07T04:56:52;3.90;;;3.70;;
3333;SDS011;1679;50.392;8.008;2023-05-07T04:59:18;4.30;;;4.00;;
3333;SDS011;1679;50.392;8.008;2023-05-07T05:01:44;3.93;;;3.73;;
3333;SDS011;1679;50.392;8.008;2023-05-07T05:04:10;4.17;;;3.77;;
3333;SDS011;1679;50.392;8.008;2023-05-07T05:06:35;4.80;;;4.40;;
3333;SDS011;1679;50.392;8.008;2023-05-07T05:09:02;4.33;;;4.03;;
3333;SDS011;1679;50.392;8.008;2023-05-07T05:11:30;4.37;;;4.00;;
3333;SDS011;1679;50.392;8.008;2023-05-07T05:13:56;4.27;;;3.90;;
3333;SDS011;1679;50.392;8.008;2023-05-07T05:16:22;4.30;;;4.10;;
3333;SDS011;1679;50.392;8.008;2023-05-07T05:18:49;4.50;;;4.10;;
3333;SDS011;1679;50.392;8.008;2023-05-07T05:21:17;5.27;;;4.70;;
3333;SDS011;1679;50.392;8.008;2023-05-07T05:23:43;4.40;;;4.00;;
3333;SDS011;1679;50.392;8.008;2023-05-07T05:26:09;4.60;;;4.30;;
3333;SDS011;1679;50.392;8.008;2023-05-07T05:28:35;5.37;;;4.50;;
3333;SDS011;1679;50.392;8.008;2023-05-07T05:31:00;4.27;;;3.93;;
3333;SDS011;1679;50.392;8.008;2023-05-07T05:33:26;6.73;;;6.13;;
3333;SDS011;1679;50.392;8.008;2023-05-07T05:35:53;3.30;;;3.10;;
3333;SDS011;1679;50.392;8.008;2023-05-07T05:38:19;4.50;;;4.07;;
3333;SDS011;1679;50.392;8.008;2023-05-07T05:40:45;4.77;;;3.97;;
3333;SDS011;1679;50.392;8.008;2023-05-07T05:43:11;4.27;;;3.97;;
3333;SDS011;1679;50.392;8.008;2023-05-07T05:45:37;4.00;;;3.80;;
3333;SDS011;1679;50.392;8.008;2023-05-07T05:48:02;4.77;;;4.27;;
3333;SDS011;1679;50.392;8.008;2023-05-07T05:50:28;4.20;;;4.00;;
3333;SDS011;1679;50.392;8.008;2023-05-07T05:52:55;4.60;;;4.30;;
3333;SDS011;1679;50.392;8.008;2023-05-07T05:55:21;4.63;;;4.33;;
3333;SDS011;1679;50.392;8.008;2023-05-07T05:57:47;4.20;;;4.00;;
3333;SDS011;1679;50.392;8.008;2023-05-07T06:00:15;4.93;;;4.63;;
3333;SDS011;1679;50.392;8.008;2023-05-07T06:02:41;4.73;;;4.40;;
3333;SDS011;1679;50.392;8.008;2023-05-07T06:05:07;4.10;;;3.90;;
3333;SDS011;1679;50.392;8.008;2023-05-07T06:07:33;4.97;;;4.40;;
3333;SDS011;1679;50.392;8.008;2023-05-07T06:09:59;5.37;;;4.43;;
3333;SDS011;1679;50.392;8.008;2023-05-07T06:12:25;8.07;;;4.97;;
3333;SDS011;1679;50.392;8.008;2023-05-07T06:14:52;5.10;;;4.70;;
3333;SDS011;1679;50.392;8.008;2023-05-07T06:17:18;5.07;;;4.60;;
3333;SDS011;1679;50.392;8.008;2023-05-07T06:19:43;5.03;;;4.10;;
3333;SDS011;1679;50.392;8.008;2023-05-07T06:22:09;5.23;;;4.87;;
3333;SDS011;1679;50.392;8.008;2023-05-07T06:24:35;5.73;;;5.33;;
3333;SDS011;1679;50.392;8.008;2023-05-07T06:27:02;5.37;;;4.97;;
3333;SDS011;1679;50.392;8.008;2023-05-07T06:29:28;5.37;;;4.97;;
3333;SDS011;1679;50.392;8.008;2023-05-07T06:31:56;5.30;;;4.80;;
3333;SDS011;1679;50.392;8.008;2023-05-07T06:34:21;4.90;;;4.50;;
3333;SDS011;1679;50.392;8.008;2023-05-07T06:36:47;5.33;;;4.77;;
3333;SDS011;1679;50.392;8.008;2023-05-07T06:39:12;5.13;;;4.60;;
3333;SDS011;1679;50.392;8.008;2023-05-07T06:41:38;4.30;;;4.00;;
3333;SDS011;1679;50.392;8.008;2023-05-07T06:44:04;5.13;;;4.73;;
3333;SDS011;1679;50.392;8.008;2023-05-07T06:46:30;4.93;;;4.63;;
3333;SDS011;1679;50.392;8.008;2023-05-07T06:48:55;5.30;;;5.00;;
3333;SDS011;1679;50.392;8.008;2023-05-07T06:51:21;5.00;;;4.70;;
3333;SDS011;1679;50.392;8.008;2023-05-07T06:53:47;6.03;;;5.53;;
3333;SDS011;1679;50.392;8.008;2023-05-07T06:56:13;5.10;;;4.70;;
3333;SDS011;1679;50.392;8.008;2023-05-07T06:58:38;5.40;;;5.00;;
3333;SDS011;1679;50.392;8.008;2023-05-07T07:01:04;5.20;;;4.90;;
3333;SDS011;1679;50.392;8.008;2023-05-07T07:03:29;5.37;;;4.97;;
3333;SDS011;1679;50.392;8.008;2023-05-07T07:05:55;5.60;;;4.73;;
3333;SDS011;1679;50.392;8.008;2023-05-07T07:08:22;7.30;;;5.00;;
3333;SDS011;1679;50.392;8.008;2023-05-07T07:10:48;5.10;;;4.80;;
3333;SDS011;1679;50.392;8.008;2023-05-07T07:13:13;5.23;;;4.83;;
3333;SDS011;1679;50.392;8.008;2023-05-07T07:15:39;5.67;;;5.13;;
3333;SDS011;1679;50.392;8.008;2023-05-07T07:18:05;5.20;;;4.80;;
3333;SDS011;1679;50.392;8.008;2023-05-07T07:20:32;5.93;;;5.43;;
3333;SDS011;1679;50.392;8.008;2023-05-07T07:22:57;5.20;;;4.90;;
3333;SDS011;1679;50.392;8.008;2023-05-07T07:25:23;5.00;;;4.70;;
3333;SDS011;1679;50.392;8.008;2023-05-07T07:27:50;6.13;;;5.53;;
3333;SDS011;1679;50.392;8.008;2023-05-07T07:30:15;5.00;;;4.70;;
3333;SDS011;1679;50.392;8.008;2023-05-07T07:32:41;4.90;;;4.50;;
3333;SDS011;1679;50.392;8.008;2023-05-07T07:35:07;6.77;;;5.47;;
3333;SDS011;1679;50.392;8.008;2023-05-07T07:37:33;6.63;;;4.87;;
3333;SDS011;1679;50.392;8.008;2023-05-07T07:39:59;5.87;;;5.07;;
3333;SDS011;1679;50.392;8.008;2023-05-07T07:42:25;5.27;;;4.90;;
3333;SDS011;1679;50.392;8.008;2023-05-07T07:44:50;5.17;;;4.77;;
3333;SDS011;1679;50.392;8.008;2023-05-07T07:47:16;6.40;;;5.73;;
3333;SDS011;1679;50.392;8.008;2023-05-07T07:49:41;6.37;;;5.20;;
3333;SDS011;1679;50.392;8.008;2023-05-07T07:52:07;6.20;;;5.77;;
3333;SDS011;1679;50.392;8.008;2023-05-07T07:54:32;5.63;;;5.13;;
3333;SDS011;1679;50.392;8.008;2023-05-07T07:56:58;6.23;;;5.83;;
3333;SDS011;1679;50.392;8.008;2023-05-07T07:59:26;5.53;;;5.03;;
3333;SDS011;1679;50.392;8.008;2023-05-07T08:01:51;5.30;;;4.90;;
3333;SDS011;1679;50.392;8.008;2023-05-07T08:04:21;6.17;;;5.57;;
3333;SDS011;1679;50.392;8.008;2023-05-07T08:06:47;6.17;;;5.57;;
3333;SDS011;1679;50.392;8.008;2023-05-07T08:09:13;5.60;;;5.13;;
3333;SDS011;1679;50.392;8.008;2023-05-07T08:11:38;8.37;;;5.07;;
3333;SDS011;1679;50.392;8.008;2023-05-07T08:14:04;5.90;;;5.60;;
3333;SDS011;1679;50.392;8.008;2023-05-07T08:16:30;5.60;;;5.30;;
3333;SDS011;1679;50.392;8.008;2023-05-07T08:18:56;6.77;;;6.10;;
3333;SDS011;1679;50.392;8.008;2023-05-07T08:21:22;5.60;;;5.20;;
3333;SDS011;1679;50.392;8.008;2023-05-07T08:23:48;8.03;;;5.70;;
3333;SDS011;1679;50.392;8.008;2023-05-07T08:26:14;6.07;;;5.67;;
3333;SDS011;1679;50.392;8.008;2023-05-07T08:28:40;6.67;;;6.13;;
3333;SDS011;1679;50.392;8.008;2023-05-07T08:31:05;6.43;;;5.83;;
3333;SDS011;1679;50.392;8.008;2023-05-07T08:33:31;6.60;;;6.00;;
3333;SDS011;1679;50.392;8.008;2023-05-07T08:35:57;7.67;;;5.33;;
3333;SDS011;1679;50.392;8.008;2023-05-07T08:38:23;7.17;;;6.67;;
3333;SDS011;1679;50.392;8.008;2023-05-07T08:40:48;6.10;;;5.73;;
3333;SDS011;1679;50.392;8.008;2023-05-07T08:43:14;7.23;;;6.63;;
3333;SDS011;1679;50.392;8.008;2023-05-07T08:45:40;6.63;;;6.13;;
3333;SDS011;1679;50.392;8.008;2023-05-07T08:48:10;6.30;;;5.83;;
3333;SDS011;1679;50.392;8.008;2023-05-07T08:50:40;6.70;;;6.30;;
3333;SDS011;1679;50.392;8.008;2023-05-07T08:53:06;6.73;;;6.10;;
3333;SDS011;1679;50.392;8.008;2023-05-07T08:55:31;6.40;;;5.90;;
3333;SDS011;1679;50.392;8.008;2023-05-07T08:57:58;6.77;;;6.27;;
3333;SDS011;1679;50.392;8.008;2023-05-07T09:00:24;6.80;;;6.20;;
3333;SDS011;1679;50.392;8.008;2023-05-07T09:02:50;7.30;;;6.80;;
3333;SDS011;1679;50.392;8.008;2023-05-07T09:05:15;6.97;;;6.37;;
3333;SDS011;1679;50.392;8.008;2023-05-07T09:07:41;8.10;;;7.30;;
3333;SDS011;1679;50.392;8.008;2023-05-07T09:10:06;7.20;;;6.70;;
3333;SDS011;1679;50.392;8.008;2023-05-07T09:12:32;6.73;;;6.23;;
3333;SDS011;1679;50.392;8.008;2023-05-07T09:15:00;7.63;;;6.90;;
3333;SDS011;1679;50.392;8.008;2023-05-07T09:17:26;7.07;;;6.57;;
3333;SDS011;1679;50.392;8.008;2023-05-07T09:19:52;8.20;;;7.53;;
3333;SDS011;1679;50.392;8.008;2023-05-07T09:22:18;8.27;;;7.60;;
3333;SDS011;1679;50.392;8.008;2023-05-07T09:24:50;7.80;;;7.20;;
3333;SDS011;1679;50.392;8.008;2023-05-07T09:27:16;7.80;;;7.30;;
3333;SDS011;1679;50.392;8.008;2023-05-07T09:29:43;7.63;;;7.13;;
3333;SDS011;1679;50.392;8.008;2023-05-07T09:32:09;8.57;;;7.70;;
3333;SDS011;1679;50.392;8.008;2023-05-07T09:34:35;7.50;;;6.80;;
3333;SDS011;1679;50.392;8.008;2023-05-07T09:37:04;8.13;;;7.53;;
3333;SDS011;1679;50.392;8.008;2023-05-07T09:39:40;8.23;;;7.63;;
3333;SDS011;1679;50.392;8.008;2023-05-07T09:42:13;8.87;;;8.17;;
3333;SDS011;1679;50.392;8.008;2023-05-07T09:44:43;8.17;;;7.50;;
3333;SDS011;1679;50.392;8.008;2023-05-07T09:47:10;8.40;;;7.80;;
3333;SDS011;1679;50.392;8.008;2023-05-07T09:49:37;8.30;;;7.70;;
3333;SDS011;1679;50.392;8.008;2023-05-07T09:52:05;8.17;;;6.87;;
3333;SDS011;1679;50.392;8.008;2023-05-07T09:54:32;8.63;;;7.93;;
3333;SDS011;1679;50.392;8.008;2023-05-07T09:56:59;9.30;;;8.70;;
3333;SDS011;1679;50.392;8.008;2023-05-07T09:59:27;8.43;;;7.77;;
3333;SDS011;1679;50.392;8.008;2023-05-07T10:01:55;8.10;;;7.50;;
3333;SDS011;1679;50.392;8.008;2023-05-07T10:04:22;8.50;;;7.90;;
3333;SDS011;1679;50.392;8.008;2023-05-07T10:06:49;8.17;;;7.60;;
3333;SDS011;1679;50.392;8.008;2023-05-07T10:09:15;8.90;;;8.00;;
3333;SDS011;1679;50.392;8.008;2023-05-07T10:11:41;8.93;;;8.30;;
3333;SDS011;1679;50.392;8.008;2023-05-07T10:14:08;9.57;;;8.80;;
3333;SDS011;1679;50.392;8.008;2023-05-07T10:16:35;8.00;;;7.30;;
3333;SDS011;1679;50.392;8.008;2023-05-07T10:19:06;7.70;;;7.20;;
3333;SDS011;1679;50.392;8.008;2023-05-07T10:21:36;8.60;;;7.80;;
3333;SDS011;1679;50.392;8.008;2023-05-07T10:24:08;8.60;;;8.00;;
3333;SDS011;1679;50.392;8.008;2023-05-07T10:26:42;7.70;;;7.20;;
3333;SDS011;1679;50.392;8.008;2023-05-07T10:29:15;8.30;;;7.50;;
3333;SDS011;1679;50.392;8.008;2023-05-07T10:31:57;9.80;;;8.57;;
3333;SDS011;1679;50.392;8.008;2023-05-07T10:34:37;8.43;;;7.70;;
3333;SDS011;1679;50.392;8.008;2023-05-07T10:37:06;8.20;;;7.60;;
3333;SDS011;1679;50.392;8.008;2023-05-07T10:39:34;9.13;;;8.33;;
3333;SDS011;1679;50.392;8.008;2023-05-07T10:42:09;7.37;;;6.67;;
3333;SDS011;1679;50.392;8.008;2023-05-07T10:44:35;7.40;;;6.80;;
3333;SDS011;1679;50.392;8.008;2023-05-07T10:47:08;8.37;;;7.77;;
3333;SDS011;1679;50.392;8.008;2023-05-07T10:49:36;9.00;;;8.20;;
3333;SDS011;1679;50.392;8.008;2023-05-07T10:52:23;7.80;;;7.20;;
3333;SDS011;1679;50.392;8.008;2023-05-07T10:55:18;8.67;;;7.90;;
3333;SDS011;1679;50.392;8.008;2023-05-07T10:57:39;7.53;;;6.30;;
3333;SDS011;1679;50.392;8.008;2023-05-07T11:00:40;7.00;;;6.43;;
3333;SDS011;1679;50.392;8.008;2023-05-07T11:05:30;8.90;;;8.10;;
3333;SDS011;1679;50.392;8.008;2023-05-07T11:07:58;8.30;;;7.70;;
3333;SDS011;1679;50.392;8.008;2023-05-07T11:16:20;8.17;;;7.47;;
3333;SDS011;1679;50.392;8.008;2023-05-07T11:18:49;7.13;;;6.60;;
3333;SDS011;1679;50.392;8.008;2023-05-07T11:24:07;7.20;;;6.80;;
3333;SDS011;1679;50.392;8.008;2023-05-07T11:26:46;7.70;;;7.00;;
3333;SDS011;1679;50.392;8.008;2023-05-07T11:29:14;7.27;;;6.87;;
3333;SDS011;1679;50.392;8.008;2023-05-07T11:31:40;6.80;;;6.40;;
3333;SDS011;1679;50.392;8.008;2023-05-07T11:34:06;7.63;;;6.90;;
3333;SDS011;1679;50.392;8.008;2023-05-07T11:36:32;8.33;;;7.73;;
3333;SDS011;1679;50.392;8.008;2023-05-07T11:38:59;8.00;;;7.40;;
3333;SDS011;1679;50.392;8.008;2023-05-07T11:41:33;8.30;;;7.60;;
3333;SDS011;1679;50.392;8.008;2023-05-07T11:44:01;8.60;;;8.00;;
3333;SDS011;1679;50.392;8.008;2023-05-07T11:46:27;7.70;;;7.20;;
3333;SDS011;1679;50.392;8.008;2023-05-07T11:48:54;8.30;;;7.70;;
3333;SDS011;1679;50.392;8.008;2023-05-07T11:51:21;8.33;;;7.73;;
3333;SDS011;1679;50.392;8.008;2023-05-07T11:53:49;8.07;;;7.47;;
3333;SDS011;1679;50.392;8.008;2023-05-07T11:56:16;7.83;;;7.23;;
3333;SDS011;1679;50.392;8.008;2023-05-07T11:58:43;7.10;;;6.60;;
3333;SDS011;1679;50.392;8.008;2023-05-07T12:01:10;7.60;;;7.00;;
3333;SDS011;1679;50.392;8.008;2023-05-07T12:03:39;7.40;;;6.90;;
3333;SDS011;1679;50.392;8.008;2023-05-07T12:06:10;6.13;;;5.80;;
3333;SDS011;1679;50.392;8.008;2023-05-07T12:08:37;5.90;;;5.60;;
3333;SDS011;1679;50.392;8.008;2023-05-07T12:11:06;5.63;;;5.33;;
3333;SDS011;1679;50.392;8.008;2023-05-07T12:13:36;5.00;;;4.70;;
3333;SDS011;1679;50.392;8.008;2023-05-07T12:16:01;5.60;;;5.20;;
3333;SDS011;1679;50.392;8.008;2023-05-07T12:18:29;5.17;;;4.90;;
3333;SDS011;1679;50.392;8.008;2023-05-07T12:20:55;5.30;;;5.00;;
3333;SDS011;1679;50.392;8.008;2023-05-07T12:23:21;5.70;;;5.30;;
3333;SDS011;1679;50.392;8.008;2023-05-07T12:25:47;6.80;;;5.50;;
3333;SDS011;1679;50.392;8.008;2023-05-07T12:28:14;6.90;;;6.40;;
3333;SDS011;1679;50.392;8.008;2023-05-07T12:30:43;5.70;;;5.30;;
3333;SDS011;1679;50.392;8.008;2023-05-07T12:33:10;6.43;;;6.03;;
3333;SDS011;1679;50.392;8.008;2023-05-07T12:35:38;6.77;;;6.37;;
3333;SDS011;1679;50.392;8.008;2023-05-07T12:38:08;7.90;;;7.27;;
3333;SDS011;1679;50.392;8.008;2023-05-07T12:40:45;7.00;;;6.50;;
3333;SDS011;1679;50.392;8.008;2023-05-07T12:43:26;5.63;;;5.33;;
3333;SDS011;1679;50.392;8.008;2023-05-07T12:45:53;6.17;;;5.77;;
3333;SDS011;1679;50.392;8.008;2023-05-07T12:48:21;6.60;;;6.20;;
3333;SDS011;1679;50.392;8.008;2023-05-07T12:50:50;6.80;;;6.40;;
3333;SDS011;1679;50.392;8.008;2023-05-07T12:53:16;6.67;;;6.17;;
3333;SDS011;1679;50.392;8.008;2023-05-07T12:55:45;6.07;;;5.67;;
3333;SDS011;1679;50.392;8.008;2023-05-07T13:00:47;6.40;;;6.00;;
3333;SDS011;1679;50.392;8.008;2023-05-07T13:03:20;6.50;;;6.10;;
3333;SDS011;1679;50.392;8.008;2023-05-07T13:06:09;7.03;;;6.60;;
3333;SDS011;1679;50.392;8.008;2023-05-07T13:08:37;9.73;;;8.93;;
3333;SDS011;1679;50.392;8.008;2023-05-07T13:11:08;8.10;;;7.60;;
3333;SDS011;1679;50.392;8.008;2023-05-07T13:13:36;5.90;;;5.60;;
3333;SDS011;1679;50.392;8.008;2023-05-07T13:16:04;6.47;;;5.50;;
3333;SDS011;1679;50.392;8.008;2023-05-07T13:18:32;5.40;;;4.90;;
3333;SDS011;1679;50.392;8.008;2023-05-07T13:20:58;6.47;;;5.87;;
3333;SDS011;1679;50.392;8.008;2023-05-07T13:23:25;5.03;;;4.63;;
3333;SDS011;1679;50.392;8.008;2023-05-07T13:25:52;4.83;;;4.53;;
3333;SDS011;1679;50.392;8.008;2023-05-07T13:28:18;4.77;;;4.47;;
3333;SDS011;1679;50.392;8.008;2023-05-07T13:30:45;5.30;;;4.90;;
3333;SDS011;1679;50.392;8.008;2023-05-07T13:33:11;4.80;;;4.50;;
3333;SDS011;1679;50.392;8.008;2023-05-07T13:35:37;4.73;;;4.30;;
3333;SDS011;1679;50.392;8.008;2023-05-07T13:38:03;5.00;;;3.50;;
3333;SDS011;1679;50.392;8.008;2023-05-07T13:40:28;5.67;;;5.33;;
3333;SDS011;1679;50.392;8.008;2023-05-07T13:42:56;6.03;;;5.63;;
3333;SDS011;1679;50.392;8.008;2023-05-07T13:45:23;4.80;;;4.50;;
3333;SDS011;1679;50.392;8.008;2023-05-07T13:47:50;4.80;;;4.50;;
3333;SDS011;1679;50.392;8.008;2023-05-07T13:50:16;5.00;;;4.70;;
3333;SDS011;1679;50.392;8.008;2023-05-07T13:52:42;5.40;;;5.00;;
3333;SDS011;1679;50.392;8.008;2023-05-07T13:55:15;5.70;;;5.30;;
3333;SDS011;1679;50.392;8.008;2023-05-07T13:57:41;5.50;;;5.10;;
3333;SDS011;1679;50.392;8.008;2023-05-07T14:00:07;5.67;;;5.10;;
3333;SDS011;1679;50.392;8.008;2023-05-07T14:02:33;5.13;;;4.83;;
3333;SDS011;1679;50.392;8.008;2023-05-07T14:04:58;5.17;;;4.90;;
3333;SDS011;1679;50.392;8.008;2023-05-07T14:07:25;6.27;;;5.77;;
3333;SDS011;1679;50.392;8.008;2023-05-07T14:09:51;5.27;;;4.87;;
3333;SDS011;1679;50.392;8.008;2023-05-07T14:12:18;5.80;;;5.40;;
3333;SDS011;1679;50.392;8.008;2023-05-07T14:14:43;4.80;;;4.60;;
3333;SDS011;1679;50.392;8.008;2023-05-07T14:17:11;6.30;;;4.70;;
3333;SDS011;1679;50.392;8.008;2023-05-07T14:19:36;6.17;;;5.77;;
3333;SDS011;1679;50.392;8.008;2023-05-07T14:22:02;4.97;;;4.57;;
3333;SDS011;1679;50.392;8.008;2023-05-07T14:24:27;5.00;;;4.70;;
3333;SDS011;1679;50.392;8.008;2023-05-07T14:26:53;5.50;;;5.20;;
3333;SDS011;1679;50.392;8.008;2023-05-07T14:29:18;5.10;;;4.90;;
3333;SDS011;1679;50.392;8.008;2023-05-07T14:31:44;4.40;;;4.20;;
3333;SDS011;1679;50.392;8.008;2023-05-07T14:34:11;4.43;;;4.03;;
3333;SDS011;1679;50.392;8.008;2023-05-07T14:36:36;4.40;;;4.10;;
3333;SDS011;1679;50.392;8.008;2023-05-07T14:39:03;4.57;;;4.27;;
3333;SDS011;1679;50.392;8.008;2023-05-07T14:41:29;5.03;;;4.70;;
3333;SDS011;1679;50.392;8.008;2023-05-07T14:43:55;5.40;;;4.90;;
3333;SDS011;1679;50.392;8.008;2023-05-07T14:46:20;4.40;;;4.20;;
3333;SDS011;1679;50.392;8.008;2023-05-07T14:48:46;4.50;;;4.30;;
3333;SDS011;1679;50.392;8.008;2023-05-07T14:51:12;7.97;;;4.40;;
3333;SDS011;1679;50.392;8.008;2023-05-07T14:53:38;4.10;;;3.90;;
3333;SDS011;1679;50.392;8.008;2023-05-07T14:56:05;4.47;;;4.27;;
3333;SDS011;1679;50.392;8.008;2023-05-07T14:58:31;4.73;;;4.53;;
3333;SDS011;1679;50.392;8.008;2023-05-07T15:00:57;4.03;;;3.83;;
3333;SDS011;1679;50.392;8.008;2023-05-07T15:03:23;3.93;;;3.73;;
3333;SDS011;1679;50.392;8.008;2023-05-07T15:05:50;4.50;;;4.30;;
3333;SDS011;1679;50.392;8.008;2023-05-07T15:08:16;4.20;;;4.00;;
3333;SDS011;1679;50.392;8.008;2023-05-07T15:10:42;4.13;;;3.83;;
3333;SDS011;1679;50.392;8.008;2023-05-07T15:13:08;4.80;;;4.50;;
3333;SDS011;1679;50.392;8.008;2023-05-07T15:15:35;6.60;;;4.30;;
3333;SDS011;1679;50.392;8.008;2023-05-07T15:18:02;4.50;;;4.10;;
3333;SDS011;1679;50.392;8.008;2023-05-07T15:20:29;4.23;;;4.03;;
3333;SDS011;1679;50.392;8.008;2023-05-07T15:22:55;3.83;;;3.63;;
3333;SDS011;1679;50.392;8.008;2023-05-07T15:25:22;4.13;;;3.83;;
3333;SDS011;1679;50.392;8.008;2023-05-07T15:27:48;4.20;;;4.00;;